sensor_id;sensor_type;location;lat;lon;timestamp;temperature;humidity
25074;DHT22;13066;52.042;5.648;2022-09-20T00:01:38;13.70;99.90
25074;DHT22;13066;52.042;5.648;2022-09-20T00:04:06;13.60;99.90
25074;DHT22;13066;52.042;5.648;2022-09-20T00:06:36;13.60;99.90
25074;DHT22;13066;52.042;5.648;2022-09-20T00:09:06;13.60;99.90
25074;DHT22;13066;52.042;5.648;2022-09-20T00:11:34;13.60;99.90
25074;DHT22;13066;52.042;5.648;2022-09-20T00:14:05;13.60;99.90
25074;DHT22;13066;52.042;5.648;2022-09-20T00:16:36;13.60;99.90
25074;DHT22;13066;52.042;5.648;2022-09-20T00:19:07;13.50;99.90
25074;DHT22;13066;52.042;5.648;2022-09-20T00:21:36;13.50;99.90
25074;DHT22;13066;52.042;5.648;2022-09-20T00:24:06;13.50;99.90
25074;DHT22;13066;52.042;5.648;2022-09-20T00:26:35;13.50;99.90
25074;DHT22;13066;52.042;5.648;2022-09-20T00:29:03;13.50;99.90
25074;DHT22;13066;52.042;5.648;2022-09-20T00:31:32;13.50;99.90
25074;DHT22;13066;52.042;5.648;2022-09-20T00:34:01;13.50;99.90
25074;DHT22;13066;52.042;5.648;2022-09-20T00:36:47;13.40;99.90
25074;DHT22;13066;52.042;5.648;2022-09-20T00:39:16;13.40;99.90
25074;DHT22;13066;52.042;5.648;2022-09-20T00:41:45;13.40;99.90
25074;DHT22;13066;52.042;5.648;2022-09-20T00:44:39;13.50;99.90
25074;DHT22;13066;52.042;5.648;2022-09-20T00:47:15;13.50;99.90
25074;DHT22;13066;52.042;5.648;2022-09-20T00:49:48;13.50;99.90
25074;DHT22;13066;52.042;5.648;2022-09-20T00:52:17;13.50;99.90
25074;DHT22;13066;52.042;5.648;2022-09-20T00:54:48;13.60;99.90
25074;DHT22;13066;52.042;5.648;2022-09-20T00:57:16;13.60;99.90
25074;DHT22;13066;52.042;5.648;2022-09-20T00:59:46;13.60;99.90
25074;DHT22;13066;52.042;5.648;2022-09-20T01:02:18;13.60;99.90
25074;DHT22;13066;52.042;5.648;2022-09-20T01:04:47;13.60;99.90
25074;DHT22;13066;52.042;5.648;2022-09-20T01:07:19;13.60;99.90
25074;DHT22;13066;52.042;5.648;2022-09-20T01:09:51;13.60;99.90
25074;DHT22;13066;52.042;5.648;2022-09-20T01:12:21;13.60;99.90
25074;DHT22;13066;52.042;5.648;2022-09-20T01:14:51;13.60;99.90
25074;DHT22;13066;52.042;5.648;2022-09-20T01:17:23;13.60;99.90
25074;DHT22;13066;52.042;5.648;2022-09-20T01:20:04;13.70;99.90
25074;DHT22;13066;52.042;5.648;2022-09-20T01:22:44;13.60;99.90
25074;DHT22;13066;52.042;5.648;2022-09-20T01:25:20;13.60;99.90
25074;DHT22;13066;52.042;5.648;2022-09-20T01:27:53;13.60;99.90
25074;DHT22;13066;52.042;5.648;2022-09-20T01:30:23;13.60;99.90
25074;DHT22;13066;52.042;5.648;2022-09-20T01:33:04;13.60;99.90
25074;DHT22;13066;52.042;5.648;2022-09-20T01:35:35;13.50;99.90
25074;DHT22;13066;52.042;5.648;2022-09-20T01:38:18;13.60;99.90
25074;DHT22;13066;52.042;5.648;2022-09-20T01:40:58;13.50;99.90
25074;DHT22;13066;52.042;5.648;2022-09-20T01:43:35;13.50;99.90
25074;DHT22;13066;52.042;5.648;2022-09-20T01:46:13;13.50;99.90
25074;DHT22;13066;52.042;5.648;2022-09-20T01:48:43;13.50;99.90
25074;DHT22;13066;52.042;5.648;2022-09-20T02:00:55;13.50;99.90
25074;DHT22;13066;52.042;5.648;2022-09-20T02:03:49;13.40;99.90
25074;DHT22;13066;52.042;5.648;2022-09-20T02:06:44;13.40;99.90
25074;DHT22;13066;52.042;5.648;2022-09-20T02:09:48;13.40;99.90
25074;DHT22;13066;52.042;5.648;2022-09-20T02:15:45;13.50;99.90
25074;DHT22;13066;52.042;5.648;2022-09-20T02:18:33;13.50;99.90
25074;DHT22;13066;52.042;5.648;2022-09-20T02:21:13;13.50;99.90
25074;DHT22;13066;52.042;5.648;2022-09-20T02:23:53;13.50;99.90
25074;DHT22;13066;52.042;5.648;2022-09-20T02:26:40;13.50;99.90
25074;DHT22;13066;52.042;5.648;2022-09-20T02:29:21;13.50;99.90
25074;DHT22;13066;52.042;5.648;2022-09-20T02:32:28;13.50;99.90
25074;DHT22;13066;52.042;5.648;2022-09-20T02:35:13;13.50;99.90
25074;DHT22;13066;52.042;5.648;2022-09-20T02:38:00;13.40;99.90
25074;DHT22;13066;52.042;5.648;2022-09-20T02:40:54;13.40;99.90
25074;DHT22;13066;52.042;5.648;2022-09-20T02:43:29;13.40;99.90
25074;DHT22;13066;52.042;5.648;2022-09-20T02:46:03;13.40;99.90
25074;DHT22;13066;52.042;5.648;2022-09-20T02:48:43;13.40;99.90
25074;DHT22;13066;52.042;5.648;2022-09-20T02:51:20;13.40;99.90
25074;DHT22;13066;52.042;5.648;2022-09-20T02:54:00;13.40;99.90
25074;DHT22;13066;52.042;5.648;2022-09-20T02:56:37;13.50;99.90
25074;DHT22;13066;52.042;5.648;2022-09-20T02:59:17;13.50;99.90
25074;DHT22;13066;52.042;5.648;2022-09-20T03:01:55;13.40;99.90
25074;DHT22;13066;52.042;5.648;2022-09-20T03:04:37;13.50;99.90
25074;DHT22;13066;52.042;5.648;2022-09-20T03:07:20;13.50;99.90
25074;DHT22;13066;52.042;5.648;2022-09-20T03:09:56;13.50;99.90
25074;DHT22;13066;52.042;5.648;2022-09-20T03:12:34;13.50;99.90
25074;DHT22;13066;52.042;5.648;2022-09-20T03:15:15;13.40;99.90
25074;DHT22;13066;52.042;5.648;2022-09-20T03:17:50;13.40;99.90
25074;DHT22;13066;52.042;5.648;2022-09-20T03:20:28;13.40;99.90
25074;DHT22;13066;52.042;5.648;2022-09-20T03:23:19;13.40;99.90
25074;DHT22;13066;52.042;5.648;2022-09-20T03:25:56;13.40;99.90
25074;DHT22;13066;52.042;5.648;2022-09-20T03:28:41;13.40;99.90
25074;DHT22;13066;52.042;5.648;2022-09-20T03:31:26;13.40;99.90
25074;DHT22;13066;52.042;5.648;2022-09-20T03:34:04;13.40;99.90
25074;DHT22;13066;52.042;5.648;2022-09-20T03:36:54;13.40;99.90
25074;DHT22;13066;52.042;5.648;2022-09-20T03:39:42;13.40;99.90
25074;DHT22;13066;52.042;5.648;2022-09-20T03:42:17;13.40;99.90
25074;DHT22;13066;52.042;5.648;2022-09-20T03:45:01;13.30;99.90
25074;DHT22;13066;52.042;5.648;2022-09-20T03:47:53;13.40;99.90
25074;DHT22;13066;52.042;5.648;2022-09-20T03:50:41;13.30;99.90
25074;DHT22;13066;52.042;5.648;2022-09-20T03:53:33;13.30;99.90
25074;DHT22;13066;52.042;5.648;2022-09-20T03:56:42;13.30;99.90
25074;DHT22;13066;52.042;5.648;2022-09-20T03:59:27;13.30;99.90
25074;DHT22;13066;52.042;5.648;2022-09-20T04:02:27;13.20;99.90
25074;DHT22;13066;52.042;5.648;2022-09-20T04:05:04;13.20;99.90
25074;DHT22;13066;52.042;5.648;2022-09-20T04:07:41;13.20;99.90
25074;DHT22;13066;52.042;5.648;2022-09-20T04:10:26;13.20;99.90
25074;DHT22;13066;52.042;5.648;2022-09-20T04:13:24;13.20;99.90
25074;DHT22;13066;52.042;5.648;2022-09-20T04:16:06;13.20;99.90
25074;DHT22;13066;52.042;5.648;2022-09-20T04:18:43;13.10;99.90
25074;DHT22;13066;52.042;5.648;2022-09-20T04:21:15;13.10;99.90
25074;DHT22;13066;52.042;5.648;2022-09-20T04:23:54;13.10;99.90
25074;DHT22;13066;52.042;5.648;2022-09-20T04:26:26;13.10;99.90
25074;DHT22;13066;52.042;5.648;2022-09-20T04:29:04;13.10;99.90
25074;DHT22;13066;52.042;5.648;2022-09-20T04:31:44;13.10;99.90
25074;DHT22;13066;52.042;5.648;2022-09-20T04:34:24;13.10;99.90
25074;DHT22;13066;52.042;5.648;2022-09-20T04:37:25;13.10;99.90
25074;DHT22;13066;52.042;5.648;2022-09-20T04:40:03;13.10;99.90
25074;DHT22;13066;52.042;5.648;2022-09-20T04:43:23;13.10;99.90
25074;DHT22;13066;52.042;5.648;2022-09-20T04:46:35;13.10;99.90
25074;DHT22;13066;52.042;5.648;2022-09-20T04:49:29;13.00;99.90
25074;DHT22;13066;52.042;5.648;2022-09-20T05:08:11;12.80;99.90
25074;DHT22;13066;52.042;5.648;2022-09-20T05:14:00;12.80;99.90
25074;DHT22;13066;52.042;5.648;2022-09-20T05:16:48;12.70;99.90
25074;DHT22;13066;52.042;5.648;2022-09-20T05:19:31;12.70;99.90
25074;DHT22;13066;52.042;5.648;2022-09-20T05:22:30;12.70;99.90
25074;DHT22;13066;52.042;5.648;2022-09-20T05:25:21;12.70;99.90
25074;DHT22;13066;52.042;5.648;2022-09-20T05:27:57;12.70;99.90
25074;DHT22;13066;52.042;5.648;2022-09-20T05:30:34;12.70;99.90
25074;DHT22;13066;52.042;5.648;2022-09-20T05:33:13;12.70;99.90
25074;DHT22;13066;52.042;5.648;2022-09-20T05:35:56;12.70;99.90
25074;DHT22;13066;52.042;5.648;2022-09-20T05:38:32;12.70;99.90
25074;DHT22;13066;52.042;5.648;2022-09-20T05:41:10;12.70;99.90
25074;DHT22;13066;52.042;5.648;2022-09-20T05:43:49;12.70;99.90
25074;DHT22;13066;52.042;5.648;2022-09-20T05:46:31;12.70;99.90
25074;DHT22;13066;52.042;5.648;2022-09-20T05:49:10;12.70;99.90
25074;DHT22;13066;52.042;5.648;2022-09-20T05:51:57;12.70;99.90
25074;DHT22;13066;52.042;5.648;2022-09-20T05:54:56;12.70;99.90
25074;DHT22;13066;52.042;5.648;2022-09-20T05:57:38;12.70;99.90
25074;DHT22;13066;52.042;5.648;2022-09-20T06:00:13;12.70;99.90
25074;DHT22;13066;52.042;5.648;2022-09-20T06:02:50;12.70;99.90
25074;DHT22;13066;52.042;5.648;2022-09-20T06:05:31;12.70;99.90
25074;DHT22;13066;52.042;5.648;2022-09-20T06:08:15;12.70;99.90
25074;DHT22;13066;52.042;5.648;2022-09-20T06:10:54;12.70;99.90
25074;DHT22;13066;52.042;5.648;2022-09-20T06:13:47;12.60;99.90
25074;DHT22;13066;52.042;5.648;2022-09-20T06:16:26;12.60;99.90
25074;DHT22;13066;52.042;5.648;2022-09-20T06:19:03;12.60;99.90
25074;DHT22;13066;52.042;5.648;2022-09-20T06:21:41;12.60;99.90
25074;DHT22;13066;52.042;5.648;2022-09-20T06:24:26;12.60;99.90
25074;DHT22;13066;52.042;5.648;2022-09-20T06:26:58;12.70;99.90
25074;DHT22;13066;52.042;5.648;2022-09-20T06:29:34;12.70;99.90
25074;DHT22;13066;52.042;5.648;2022-09-20T06:32:04;12.80;99.90
25074;DHT22;13066;52.042;5.648;2022-09-20T06:34:34;12.80;99.90
25074;DHT22;13066;52.042;5.648;2022-09-20T06:37:13;12.80;99.90
25074;DHT22;13066;52.042;5.648;2022-09-20T06:40:15;12.90;99.90
25074;DHT22;13066;52.042;5.648;2022-09-20T06:43:02;12.90;99.90
25074;DHT22;13066;52.042;5.648;2022-09-20T06:45:33;13.00;99.90
25074;DHT22;13066;52.042;5.648;2022-09-20T06:48:03;13.00;99.90
25074;DHT22;13066;52.042;5.648;2022-09-20T06:50:31;13.10;99.90
25074;DHT22;13066;52.042;5.648;2022-09-20T06:53:02;13.10;99.90
25074;DHT22;13066;52.042;5.648;2022-09-20T06:55:34;13.20;99.90
25074;DHT22;13066;52.042;5.648;2022-09-20T06:58:07;13.20;99.90
25074;DHT22;13066;52.042;5.648;2022-09-20T07:00:37;13.30;99.90
25074;DHT22;13066;52.042;5.648;2022-09-20T07:03:08;13.30;99.90
25074;DHT22;13066;52.042;5.648;2022-09-20T07:05:38;13.30;99.90
25074;DHT22;13066;52.042;5.648;2022-09-20T07:08:06;13.30;99.90
25074;DHT22;13066;52.042;5.648;2022-09-20T07:10:35;13.30;99.90
25074;DHT22;13066;52.042;5.648;2022-09-20T07:13:04;13.40;99.90
25074;DHT22;13066;52.042;5.648;2022-09-20T07:15:33;13.40;99.90
25074;DHT22;13066;52.042;5.648;2022-09-20T07:18:03;13.50;99.90
25074;DHT22;13066;52.042;5.648;2022-09-20T07:20:31;13.50;99.90
25074;DHT22;13066;52.042;5.648;2022-09-20T07:23:00;13.50;99.90
25074;DHT22;13066;52.042;5.648;2022-09-20T07:25:30;13.60;99.90
25074;DHT22;13066;52.042;5.648;2022-09-20T07:27:58;13.60;99.90
25074;DHT22;13066;52.042;5.648;2022-09-20T07:30:27;13.60;99.90
25074;DHT22;13066;52.042;5.648;2022-09-20T07:32:55;13.70;99.90
25074;DHT22;13066;52.042;5.648;2022-09-20T07:35:25;13.70;99.90
25074;DHT22;13066;52.042;5.648;2022-09-20T07:37:57;13.70;99.90
25074;DHT22;13066;52.042;5.648;2022-09-20T07:40:27;13.70;99.90
25074;DHT22;13066;52.042;5.648;2022-09-20T07:42:56;13.70;99.90
25074;DHT22;13066;52.042;5.648;2022-09-20T07:45:24;13.70;99.90
25074;DHT22;13066;52.042;5.648;2022-09-20T07:47:53;13.70;99.90
25074;DHT22;13066;52.042;5.648;2022-09-20T07:50:21;13.80;99.90
25074;DHT22;13066;52.042;5.648;2022-09-20T07:52:51;13.80;99.90
25074;DHT22;13066;52.042;5.648;2022-09-20T07:55:22;13.90;99.90
25074;DHT22;13066;52.042;5.648;2022-09-20T07:57:50;13.90;99.90
25074;DHT22;13066;52.042;5.648;2022-09-20T08:00:20;13.90;99.90
25074;DHT22;13066;52.042;5.648;2022-09-20T08:02:57;14.00;99.90
25074;DHT22;13066;52.042;5.648;2022-09-20T08:05:26;14.10;99.90
25074;DHT22;13066;52.042;5.648;2022-09-20T08:07:56;14.10;99.90
25074;DHT22;13066;52.042;5.648;2022-09-20T08:10:25;14.20;99.90
25074;DHT22;13066;52.042;5.648;2022-09-20T08:12:54;14.30;99.90
25074;DHT22;13066;52.042;5.648;2022-09-20T08:15:43;14.40;99.90
25074;DHT22;13066;52.042;5.648;2022-09-20T08:18:12;14.50;99.90
25074;DHT22;13066;52.042;5.648;2022-09-20T08:20:40;14.50;99.90
25074;DHT22;13066;52.042;5.648;2022-09-20T08:23:11;14.60;99.90
25074;DHT22;13066;52.042;5.648;2022-09-20T08:25:49;14.70;99.90
25074;DHT22;13066;52.042;5.648;2022-09-20T08:28:19;14.70;99.90
25074;DHT22;13066;52.042;5.648;2022-09-20T08:30:47;14.80;99.90
25074;DHT22;13066;52.042;5.648;2022-09-20T08:33:15;14.80;99.90
25074;DHT22;13066;52.042;5.648;2022-09-20T08:35:47;14.90;99.90
25074;DHT22;13066;52.042;5.648;2022-09-20T08:38:18;14.90;99.90
25074;DHT22;13066;52.042;5.648;2022-09-20T08:41:15;15.00;99.90
25074;DHT22;13066;52.042;5.648;2022-09-20T08:43:55;14.90;99.90
25074;DHT22;13066;52.042;5.648;2022-09-20T08:46:28;14.90;99.90
25074;DHT22;13066;52.042;5.648;2022-09-20T08:48:57;14.90;99.90
25074;DHT22;13066;52.042;5.648;2022-09-20T08:51:29;14.80;99.90
25074;DHT22;13066;52.042;5.648;2022-09-20T08:54:00;14.80;99.90
25074;DHT22;13066;52.042;5.648;2022-09-20T08:56:33;14.70;99.90
25074;DHT22;13066;52.042;5.648;2022-09-20T08:59:03;14.60;99.90
25074;DHT22;13066;52.042;5.648;2022-09-20T09:01:33;14.60;99.90
25074;DHT22;13066;52.042;5.648;2022-09-20T09:04:11;14.50;99.90
25074;DHT22;13066;52.042;5.648;2022-09-20T09:06:41;14.50;99.90
25074;DHT22;13066;52.042;5.648;2022-09-20T09:09:17;14.50;99.90
25074;DHT22;13066;52.042;5.648;2022-09-20T09:11:46;14.50;99.90
25074;DHT22;13066;52.042;5.648;2022-09-20T09:14:23;14.50;99.90
25074;DHT22;13066;52.042;5.648;2022-09-20T09:17:21;14.60;99.90
25074;DHT22;13066;52.042;5.648;2022-09-20T09:19:54;14.50;99.90
25074;DHT22;13066;52.042;5.648;2022-09-20T09:22:27;14.50;99.90
25074;DHT22;13066;52.042;5.648;2022-09-20T09:25:21;14.60;99.90
25074;DHT22;13066;52.042;5.648;2022-09-20T09:27:54;14.70;99.90
25074;DHT22;13066;52.042;5.648;2022-09-20T09:30:26;14.70;99.90
25074;DHT22;13066;52.042;5.648;2022-09-20T09:33:17;14.80;99.90
25074;DHT22;13066;52.042;5.648;2022-09-20T09:35:52;14.90;99.90
25074;DHT22;13066;52.042;5.648;2022-09-20T09:38:22;14.80;99.90
25074;DHT22;13066;52.042;5.648;2022-09-20T09:40:54;14.90;99.90
25074;DHT22;13066;52.042;5.648;2022-09-20T09:43:25;15.00;99.90
25074;DHT22;13066;52.042;5.648;2022-09-20T09:45:58;15.00;99.90
25074;DHT22;13066;52.042;5.648;2022-09-20T09:48:43;15.10;99.90
25074;DHT22;13066;52.042;5.648;2022-09-20T09:51:17;15.10;99.90
25074;DHT22;13066;52.042;5.648;2022-09-20T09:53:47;15.20;99.90
25074;DHT22;13066;52.042;5.648;2022-09-20T09:56:41;15.30;99.90
25074;DHT22;13066;52.042;5.648;2022-09-20T09:59:24;15.40;99.90
25074;DHT22;13066;52.042;5.648;2022-09-20T10:02:06;15.40;99.90
25074;DHT22;13066;52.042;5.648;2022-09-20T10:04:46;15.40;99.90
25074;DHT22;13066;52.042;5.648;2022-09-20T10:07:24;15.50;99.90
25074;DHT22;13066;52.042;5.648;2022-09-20T10:10:05;15.60;99.90
25074;DHT22;13066;52.042;5.648;2022-09-20T10:12:47;15.70;99.90
25074;DHT22;13066;52.042;5.648;2022-09-20T10:15:24;15.80;99.90
25074;DHT22;13066;52.042;5.648;2022-09-20T10:18:09;15.90;99.90
25074;DHT22;13066;52.042;5.648;2022-09-20T10:20:42;15.90;99.90
25074;DHT22;13066;52.042;5.648;2022-09-20T10:23:25;16.00;99.90
25074;DHT22;13066;52.042;5.648;2022-09-20T10:26:27;16.00;99.90
25074;DHT22;13066;52.042;5.648;2022-09-20T10:29:07;16.10;99.90
25074;DHT22;13066;52.042;5.648;2022-09-20T10:31:46;16.20;99.90
25074;DHT22;13066;52.042;5.648;2022-09-20T10:34:40;16.40;99.90
25074;DHT22;13066;52.042;5.648;2022-09-20T10:37:17;16.50;99.90
25074;DHT22;13066;52.042;5.648;2022-09-20T10:39:56;16.60;99.90
25074;DHT22;13066;52.042;5.648;2022-09-20T10:42:33;16.60;99.30
25074;DHT22;13066;52.042;5.648;2022-09-20T10:45:26;16.70;98.50
25074;DHT22;13066;52.042;5.648;2022-09-20T10:48:19;16.70;97.90
25074;DHT22;13066;52.042;5.648;2022-09-20T10:50:53;16.70;97.40
25074;DHT22;13066;52.042;5.648;2022-09-20T10:53:30;16.70;97.30
25074;DHT22;13066;52.042;5.648;2022-09-20T10:56:14;16.70;97.10
25074;DHT22;13066;52.042;5.648;2022-09-20T10:59:01;16.70;97.00
25074;DHT22;13066;52.042;5.648;2022-09-20T11:01:39;16.70;96.90
25074;DHT22;13066;52.042;5.648;2022-09-20T11:07:16;16.70;96.30
25074;DHT22;13066;52.042;5.648;2022-09-20T11:09:46;16.60;95.90
25074;DHT22;13066;52.042;5.648;2022-09-20T11:12:24;16.60;96.00
25074;DHT22;13066;52.042;5.648;2022-09-20T11:14:56;16.50;96.00
25074;DHT22;13066;52.042;5.648;2022-09-20T11:17:31;16.60;96.00
25074;DHT22;13066;52.042;5.648;2022-09-20T11:20:12;16.60;96.10
25074;DHT22;13066;52.042;5.648;2022-09-20T11:22:45;16.60;95.90
25074;DHT22;13066;52.042;5.648;2022-09-20T11:25:19;16.70;95.60
25074;DHT22;13066;52.042;5.648;2022-09-20T11:28:00;16.70;95.50
25074;DHT22;13066;52.042;5.648;2022-09-20T11:30:32;16.80;95.50
25074;DHT22;13066;52.042;5.648;2022-09-20T11:33:09;16.90;95.50
25074;DHT22;13066;52.042;5.648;2022-09-20T11:35:43;16.90;95.10
25074;DHT22;13066;52.042;5.648;2022-09-20T11:38:19;17.00;94.80
25074;DHT22;13066;52.042;5.648;2022-09-20T11:40:54;17.10;94.80
25074;DHT22;13066;52.042;5.648;2022-09-20T11:43:24;17.20;95.00
25074;DHT22;13066;52.042;5.648;2022-09-20T11:45:59;17.30;94.50
25074;DHT22;13066;52.042;5.648;2022-09-20T11:48:33;17.30;94.20
25074;DHT22;13066;52.042;5.648;2022-09-20T11:51:22;17.40;94.00
25074;DHT22;13066;52.042;5.648;2022-09-20T11:54:05;17.50;93.90
25074;DHT22;13066;52.042;5.648;2022-09-20T11:56:35;17.60;93.60
25074;DHT22;13066;52.042;5.648;2022-09-20T11:59:06;17.70;92.80
25074;DHT22;13066;52.042;5.648;2022-09-20T12:01:47;17.80;92.30
25074;DHT22;13066;52.042;5.648;2022-09-20T12:04:21;17.80;92.50
25074;DHT22;13066;52.042;5.648;2022-09-20T12:07:02;17.90;93.40
25074;DHT22;13066;52.042;5.648;2022-09-20T12:09:39;17.90;93.10
25074;DHT22;13066;52.042;5.648;2022-09-20T12:12:14;17.80;93.10
25074;DHT22;13066;52.042;5.648;2022-09-20T12:14:53;17.80;92.60
25074;DHT22;13066;52.042;5.648;2022-09-20T12:21:02;17.80;92.20
25074;DHT22;13066;52.042;5.648;2022-09-20T12:26:41;17.70;92.30
25074;DHT22;13066;52.042;5.648;2022-09-20T12:35:59;17.70;92.30
25074;DHT22;13066;52.042;5.648;2022-09-20T12:38:56;17.70;92.60
25074;DHT22;13066;52.042;5.648;2022-09-20T12:41:24;17.70;92.40
25074;DHT22;13066;52.042;5.648;2022-09-20T12:43:58;17.60;92.00
25074;DHT22;13066;52.042;5.648;2022-09-20T12:46:37;17.70;91.70
25074;DHT22;13066;52.042;5.648;2022-09-20T12:52:29;17.70;91.80
25074;DHT22;13066;52.042;5.648;2022-09-20T12:55:35;17.80;91.10
25074;DHT22;13066;52.042;5.648;2022-09-20T12:58:23;17.80;91.20
25074;DHT22;13066;52.042;5.648;2022-09-20T13:01:27;17.80;90.90
25074;DHT22;13066;52.042;5.648;2022-09-20T13:07:44;17.80;90.20
25074;DHT22;13066;52.042;5.648;2022-09-20T13:10:34;17.80;89.80
25074;DHT22;13066;52.042;5.648;2022-09-20T13:13:12;17.80;89.30
25074;DHT22;13066;52.042;5.648;2022-09-20T13:15:47;17.80;88.80
25074;DHT22;13066;52.042;5.648;2022-09-20T13:18:18;17.70;88.10
25074;DHT22;13066;52.042;5.648;2022-09-20T13:20:48;17.70;88.10
25074;DHT22;13066;52.042;5.648;2022-09-20T13:23:20;17.70;88.10
25074;DHT22;13066;52.042;5.648;2022-09-20T13:25:55;17.70;87.90
25074;DHT22;13066;52.042;5.648;2022-09-20T13:28:37;17.70;87.50
25074;DHT22;13066;52.042;5.648;2022-09-20T13:31:25;17.70;86.80
25074;DHT22;13066;52.042;5.648;2022-09-20T13:33:54;17.70;86.10
25074;DHT22;13066;52.042;5.648;2022-09-20T13:36:26;17.60;86.30
25074;DHT22;13066;52.042;5.648;2022-09-20T13:38:56;17.60;86.10
25074;DHT22;13066;52.042;5.648;2022-09-20T13:41:29;17.60;86.20
25074;DHT22;13066;52.042;5.648;2022-09-20T13:43:59;17.60;85.50
25074;DHT22;13066;52.042;5.648;2022-09-20T13:46:29;17.50;86.20
25074;DHT22;13066;52.042;5.648;2022-09-20T13:49:11;17.50;86.70
25074;DHT22;13066;52.042;5.648;2022-09-20T13:51:42;17.50;87.00
25074;DHT22;13066;52.042;5.648;2022-09-20T13:54:19;17.40;86.00
25074;DHT22;13066;52.042;5.648;2022-09-20T13:56:50;17.40;84.90
25074;DHT22;13066;52.042;5.648;2022-09-20T13:59:18;17.30;84.90
25074;DHT22;13066;52.042;5.648;2022-09-20T14:01:53;17.30;85.60
25074;DHT22;13066;52.042;5.648;2022-09-20T14:04:23;17.40;85.40
25074;DHT22;13066;52.042;5.648;2022-09-20T14:06:53;17.30;84.40
25074;DHT22;13066;52.042;5.648;2022-09-20T14:09:26;17.30;84.00
25074;DHT22;13066;52.042;5.648;2022-09-20T14:11:57;17.30;84.30
25074;DHT22;13066;52.042;5.648;2022-09-20T14:14:26;17.30;83.80
25074;DHT22;13066;52.042;5.648;2022-09-20T14:16:56;17.30;84.30
25074;DHT22;13066;52.042;5.648;2022-09-20T14:19:29;17.30;84.20
25074;DHT22;13066;52.042;5.648;2022-09-20T14:21:58;17.40;84.60
25074;DHT22;13066;52.042;5.648;2022-09-20T14:24:31;17.40;84.70
25074;DHT22;13066;52.042;5.648;2022-09-20T14:27:11;17.40;84.40
25074;DHT22;13066;52.042;5.648;2022-09-20T14:29:42;17.40;84.50
25074;DHT22;13066;52.042;5.648;2022-09-20T14:32:22;17.40;85.00
25074;DHT22;13066;52.042;5.648;2022-09-20T14:34:59;17.50;84.50
25074;DHT22;13066;52.042;5.648;2022-09-20T14:37:30;17.50;84.50
25074;DHT22;13066;52.042;5.648;2022-09-20T14:40:15;17.50;84.90
25074;DHT22;13066;52.042;5.648;2022-09-20T14:42:47;17.60;85.50
25074;DHT22;13066;52.042;5.648;2022-09-20T14:45:22;17.70;85.60
25074;DHT22;13066;52.042;5.648;2022-09-20T14:51:07;17.80;84.20
25074;DHT22;13066;52.042;5.648;2022-09-20T14:53:37;17.90;86.90
25074;DHT22;13066;52.042;5.648;2022-09-20T14:56:09;17.90;86.00
25074;DHT22;13066;52.042;5.648;2022-09-20T15:01:54;18.00;83.60
25074;DHT22;13066;52.042;5.648;2022-09-20T15:04:25;18.00;85.30
25074;DHT22;13066;52.042;5.648;2022-09-20T15:06:54;18.10;86.60
25074;DHT22;13066;52.042;5.648;2022-09-20T15:09:23;18.20;86.10
25074;DHT22;13066;52.042;5.648;2022-09-20T15:12:01;18.20;85.20
25074;DHT22;13066;52.042;5.648;2022-09-20T15:14:30;18.20;83.90
25074;DHT22;13066;52.042;5.648;2022-09-20T15:17:05;18.20;83.30
25074;DHT22;13066;52.042;5.648;2022-09-20T15:19:33;18.10;83.70
25074;DHT22;13066;52.042;5.648;2022-09-20T15:22:02;18.00;84.10
25074;DHT22;13066;52.042;5.648;2022-09-20T15:24:30;18.00;84.30
25074;DHT22;13066;52.042;5.648;2022-09-20T15:26:58;17.90;84.80
25074;DHT22;13066;52.042;5.648;2022-09-20T15:29:26;17.90;85.20
25074;DHT22;13066;52.042;5.648;2022-09-20T15:31:55;17.90;85.60
25074;DHT22;13066;52.042;5.648;2022-09-20T15:34:25;17.90;85.70
25074;DHT22;13066;52.042;5.648;2022-09-20T15:36:54;17.90;86.00
25074;DHT22;13066;52.042;5.648;2022-09-20T15:39:22;18.00;86.40
25074;DHT22;13066;52.042;5.648;2022-09-20T15:41:51;18.00;86.30
25074;DHT22;13066;52.042;5.648;2022-09-20T15:44:19;18.00;86.70
25074;DHT22;13066;52.042;5.648;2022-09-20T15:46:49;18.00;86.20
25074;DHT22;13066;52.042;5.648;2022-09-20T15:49:19;18.00;85.70
25074;DHT22;13066;52.042;5.648;2022-09-20T15:51:49;17.90;84.90
25074;DHT22;13066;52.042;5.648;2022-09-20T15:54:18;17.90;84.70
25074;DHT22;13066;52.042;5.648;2022-09-20T15:56:48;18.00;84.60
25074;DHT22;13066;52.042;5.648;2022-09-20T15:59:20;17.90;83.40
25074;DHT22;13066;52.042;5.648;2022-09-20T16:01:49;17.90;83.10
25074;DHT22;13066;52.042;5.648;2022-09-20T16:04:19;17.80;81.90
25074;DHT22;13066;52.042;5.648;2022-09-20T16:06:49;17.80;81.10
25074;DHT22;13066;52.042;5.648;2022-09-20T16:09:18;17.70;80.20
25074;DHT22;13066;52.042;5.648;2022-09-20T16:11:47;17.60;79.00
25074;DHT22;13066;52.042;5.648;2022-09-20T16:14:15;17.50;79.00
25074;DHT22;13066;52.042;5.648;2022-09-20T16:16:44;17.50;79.20
25074;DHT22;13066;52.042;5.648;2022-09-20T16:19:13;17.40;79.40
25074;DHT22;13066;52.042;5.648;2022-09-20T16:21:45;17.40;80.10
25074;DHT22;13066;52.042;5.648;2022-09-20T16:24:23;17.30;79.70
25074;DHT22;13066;52.042;5.648;2022-09-20T16:26:52;17.20;79.80
25074;DHT22;13066;52.042;5.648;2022-09-20T16:29:21;17.10;80.00
25074;DHT22;13066;52.042;5.648;2022-09-20T16:31:52;17.10;79.90
25074;DHT22;13066;52.042;5.648;2022-09-20T16:34:23;17.10;80.40
25074;DHT22;13066;52.042;5.648;2022-09-20T16:36:53;17.10;80.60
25074;DHT22;13066;52.042;5.648;2022-09-20T16:39:24;17.00;80.70
25074;DHT22;13066;52.042;5.648;2022-09-20T16:41:57;17.00;81.10
25074;DHT22;13066;52.042;5.648;2022-09-20T16:44:26;17.00;81.70
25074;DHT22;13066;52.042;5.648;2022-09-20T16:46:55;16.90;82.10
25074;DHT22;13066;52.042;5.648;2022-09-20T16:49:23;16.90;82.50
25074;DHT22;13066;52.042;5.648;2022-09-20T16:51:55;16.90;83.10
25074;DHT22;13066;52.042;5.648;2022-09-20T16:54:25;16.80;83.20
25074;DHT22;13066;52.042;5.648;2022-09-20T16:56:58;16.80;83.80
25074;DHT22;13066;52.042;5.648;2022-09-20T16:59:26;16.80;84.50
25074;DHT22;13066;52.042;5.648;2022-09-20T17:01:55;16.80;84.80
25074;DHT22;13066;52.042;5.648;2022-09-20T17:04:24;16.70;85.10
25074;DHT22;13066;52.042;5.648;2022-09-20T17:06:53;16.70;85.30
25074;DHT22;13066;52.042;5.648;2022-09-20T17:09:21;16.60;85.20
25074;DHT22;13066;52.042;5.648;2022-09-20T17:11:53;16.60;85.10
25074;DHT22;13066;52.042;5.648;2022-09-20T17:14:22;16.50;85.10
25074;DHT22;13066;52.042;5.648;2022-09-20T17:16:51;16.50;84.80
25074;DHT22;13066;52.042;5.648;2022-09-20T17:19:20;16.40;84.90
25074;DHT22;13066;52.042;5.648;2022-09-20T17:21:49;16.30;85.10
25074;DHT22;13066;52.042;5.648;2022-09-20T17:24:21;16.30;85.30
25074;DHT22;13066;52.042;5.648;2022-09-20T17:26:52;16.30;85.40
25074;DHT22;13066;52.042;5.648;2022-09-20T17:29:20;16.20;85.40